createdAt,value
2018-07-25T00:00:25.978Z,21.60
2018-07-25T00:02:30.616Z,21.60
2018-07-25T00:04:35.271Z,21.60
2018-07-25T00:06:39.940Z,21.60
2018-07-25T00:08:44.808Z,21.60
2018-07-25T00:10:54.211Z,21.60
2018-07-25T00:13:02.822Z,21.50
2018-07-25T00:15:10.532Z,21.50
2018-07-25T00:17:18.987Z,21.50
2018-07-25T00:19:28.687Z,21.50
2018-07-25T00:21:37.164Z,21.40
2018-07-25T00:25:47.516Z,21.30
2018-07-25T00:27:52.265Z,21.30
2018-07-25T00:29:57.144Z,21.30
2018-07-25T00:32:08.702Z,21.30
2018-07-25T00:34:16.412Z,21.30
2018-07-25T00:36:23.331Z,21.20
2018-07-25T00:38:29.229Z,21.10
2018-07-25T00:42:38.824Z,20.90
2018-07-25T00:44:44.541Z,20.90
2018-07-25T00:46:50.142Z,20.80
2018-07-25T00:48:55.804Z,20.80
2018-07-25T00:51:13.879Z,20.70
2018-07-25T00:53:26.959Z,20.70
2018-07-25T00:55:32.663Z,20.70
2018-07-25T00:57:38.497Z,20.70
2018-07-25T00:59:43.000Z,20.70
2018-07-25T01:01:56.168Z,20.70
2018-07-25T01:06:11.071Z,20.70
2018-07-25T01:08:15.765Z,20.70
2018-07-25T01:10:29.037Z,20.70
2018-07-25T01:12:51.383Z,20.60
2018-07-25T01:16:36.323Z,20.60
2018-07-25T01:18:48.270Z,20.60
2018-07-25T01:20:53.848Z,20.50
2018-07-25T01:22:58.679Z,20.50
2018-07-25T01:25:03.551Z,20.40
2018-07-25T01:29:28.706Z,20.40
2018-07-25T01:31:33.391Z,20.40
2018-07-25T01:33:38.050Z,20.30
2018-07-25T01:35:42.621Z,20.20
2018-07-25T01:37:47.471Z,20.20
2018-07-25T01:39:52.076Z,20.20
2018-07-25T01:41:56.741Z,20.10
2018-07-25T01:44:01.987Z,20.10
2018-07-25T01:46:07.853Z,20.10
2018-07-25T01:48:12.949Z,20.00
2018-07-25T01:50:17.663Z,20.00
2018-07-25T01:52:22.291Z,20.00
2018-07-25T01:54:26.989Z,20.00
2018-07-25T01:56:31.769Z,20.00
2018-07-25T01:58:38.729Z,20.00
2018-07-25T02:00:50.979Z,20.00
2018-07-25T02:02:55.573Z,20.00
2018-07-25T02:05:01.235Z,20.00
2018-07-25T02:09:12.373Z,20.00
2018-07-25T02:11:16.939Z,20.00
2018-07-25T02:13:21.610Z,19.90
2018-07-25T02:15:29.334Z,19.90
2018-07-25T02:17:41.596Z,19.80
2018-07-25T02:19:46.115Z,19.60
2018-07-25T02:21:53.848Z,19.60
2018-07-25T02:23:58.551Z,19.60
2018-07-25T02:26:07.042Z,19.50
2018-07-25T02:28:12.915Z,19.50
2018-07-25T02:30:19.630Z,19.50
2018-07-25T02:32:24.635Z,19.50
2018-07-25T02:34:30.920Z,19.50
2018-07-25T02:36:36.910Z,19.50
2018-07-25T02:38:41.517Z,19.50
2018-07-25T02:40:46.104Z,19.50
2018-07-25T02:42:54.154Z,19.50
2018-07-25T02:45:00.296Z,19.40
2018-07-25T02:47:05.947Z,19.40
2018-07-25T02:49:10.747Z,19.40
2018-07-25T02:51:17.950Z,19.30
2018-07-25T02:53:43.472Z,19.30
2018-07-25T02:55:48.119Z,19.20
2018-07-25T02:57:52.868Z,19.10
2018-07-25T02:59:57.405Z,19.20
2018-07-25T03:02:06.399Z,19.10
2018-07-25T03:04:11.077Z,19.10
2018-07-25T03:06:16.007Z,19.00
2018-07-25T03:08:20.623Z,19.00
2018-07-25T03:10:34.585Z,19.00
2018-07-25T03:12:39.310Z,19.00
2018-07-25T03:14:43.893Z,19.00
2018-07-25T03:16:48.532Z,19.00
2018-07-25T03:18:58.486Z,19.00
2018-07-25T03:21:03.265Z,19.00
2018-07-25T03:23:08.517Z,19.00
2018-07-25T03:25:13.039Z,19.00
2018-07-25T03:27:19.486Z,19.00
2018-07-25T03:29:24.137Z,18.90
2018-07-25T03:31:29.212Z,18.90
2018-07-25T03:33:33.888Z,18.90
2018-07-25T03:35:38.930Z,18.90
2018-07-25T03:37:44.605Z,18.90
2018-07-25T03:39:50.207Z,18.90
2018-07-25T03:41:57.592Z,18.80
2018-07-25T03:44:02.295Z,18.80
2018-07-25T03:46:11.212Z,18.80
2018-07-25T03:48:16.937Z,18.80
2018-07-25T03:50:21.703Z,18.80
2018-07-25T03:52:27.000Z,18.80
2018-07-25T03:54:34.110Z,18.70
2018-07-25T03:56:40.351Z,18.70
2018-07-25T03:58:45.114Z,18.60
2018-07-25T04:00:49.637Z,18.60
2018-07-25T04:03:02.655Z,18.60
2018-07-25T04:05:11.173Z,18.50
2018-07-25T04:07:16.742Z,18.50
2018-07-25T04:09:23.407Z,18.40
2018-07-25T04:13:32.466Z,18.30
2018-07-25T04:15:37.054Z,18.30
2018-07-25T04:17:44.628Z,18.30
2018-07-25T04:19:49.184Z,18.30
2018-07-25T04:22:04.003Z,18.30
2018-07-25T04:24:09.011Z,18.40
2018-07-25T04:26:13.721Z,18.40
2018-07-25T04:28:18.296Z,18.30
2018-07-25T04:30:26.685Z,18.30
2018-07-25T04:32:32.467Z,18.40
2018-07-25T04:34:41.303Z,18.30
2018-07-25T04:36:45.812Z,18.40
2018-07-25T04:38:51.790Z,18.40
2018-07-25T04:40:56.313Z,18.50
2018-07-25T04:43:04.771Z,18.50
2018-07-25T04:45:10.800Z,18.50
2018-07-25T04:47:17.549Z,18.50
2018-07-25T04:49:23.646Z,18.60
2018-07-25T04:51:30.204Z,18.60
2018-07-25T04:53:34.879Z,18.70
2018-07-25T04:55:41.514Z,18.70
2018-07-25T04:57:47.272Z,18.60
2018-07-25T04:59:54.852Z,18.60
2018-07-25T05:01:59.449Z,18.60
2018-07-25T05:04:10.881Z,18.60
2018-07-25T05:06:17.708Z,18.70
2018-07-25T05:08:22.432Z,18.70
2018-07-25T05:10:27.048Z,18.70
2018-07-25T05:12:37.307Z,18.70
2018-07-25T05:14:41.897Z,18.70
2018-07-25T05:16:46.577Z,18.70
2018-07-25T05:18:54.467Z,18.70
2018-07-25T05:21:00.206Z,18.70
2018-07-25T05:23:07.013Z,18.60
2018-07-25T05:25:11.618Z,18.60
2018-07-25T05:27:17.209Z,18.60
2018-07-25T05:29:28.311Z,18.70
2018-07-25T05:31:33.007Z,18.70
2018-07-25T05:33:40.045Z,18.80
2018-07-25T05:35:44.622Z,18.90
2018-07-25T05:38:01.957Z,19.00
2018-07-25T05:40:06.639Z,19.10
2018-07-25T05:42:11.298Z,19.30
2018-07-25T05:44:16.216Z,19.40
2018-07-25T05:46:23.325Z,19.60
2018-07-25T05:48:28.012Z,19.70
2018-07-25T05:50:32.780Z,19.90
2018-07-25T05:52:42.790Z,20.00
2018-07-25T05:54:49.792Z,20.20
2018-07-25T05:56:54.651Z,20.30
2018-07-25T05:58:59.989Z,20.50
2018-07-25T06:01:07.549Z,20.60
2018-07-25T06:03:13.379Z,20.80
2018-07-25T06:05:19.086Z,20.90
2018-07-25T06:07:23.721Z,21.00
2018-07-25T06:11:49.545Z,21.30
2018-07-25T06:13:54.170Z,21.40
2018-07-25T06:15:58.708Z,21.50
2018-07-25T06:18:08.479Z,21.50
2018-07-25T06:20:13.028Z,21.60
2018-07-25T06:22:17.635Z,21.70
2018-07-25T06:24:22.335Z,21.90
2018-07-25T06:26:28.015Z,22.00
2018-07-25T06:28:34.221Z,22.10
2018-07-25T06:30:38.858Z,22.30
2018-07-25T06:32:43.397Z,22.40
2018-07-25T06:34:48.843Z,22.60
2018-07-25T06:36:54.422Z,22.60
2018-07-25T06:38:59.028Z,22.70
2018-07-25T06:41:06.743Z,22.80
2018-07-25T06:43:11.342Z,22.90
2018-07-25T06:45:15.900Z,23.00
2018-07-25T06:47:20.485Z,23.20
2018-07-25T06:49:32.075Z,23.30
2018-07-25T06:51:37.029Z,23.50
2018-07-25T06:53:41.668Z,23.60
2018-07-25T06:57:53.241Z,24.10
2018-07-25T06:59:58.981Z,24.10
2018-07-25T07:02:03.679Z,24.20
2018-07-25T07:04:08.846Z,24.30
2018-07-25T07:06:23.009Z,24.40
2018-07-25T07:08:27.715Z,24.60
2018-07-25T07:10:34.299Z,24.70
2018-07-25T07:12:38.891Z,24.90
2018-07-25T07:14:44.419Z,25.00
2018-07-25T07:16:51.911Z,25.10
2018-07-25T07:18:57.725Z,25.20
2018-07-25T07:21:02.453Z,25.40
2018-07-25T07:23:08.998Z,25.60
2018-07-25T07:25:27.055Z,25.80
2018-07-25T07:27:31.726Z,25.90
2018-07-25T07:29:37.191Z,26.10
2018-07-25T07:31:41.794Z,26.30
2018-07-25T07:40:30.268Z,27.00
2018-07-25T07:44:39.659Z,27.30
2018-07-25T07:46:52.970Z,27.50
2018-07-25T07:48:57.595Z,27.60
2018-07-25T07:51:03.248Z,27.70
2018-07-25T07:53:09.747Z,27.80
2018-07-25T07:55:14.360Z,27.90
2018-07-25T07:57:19.123Z,28.00
2018-07-25T07:59:25.675Z,28.10
2018-07-25T08:01:35.302Z,28.20
2018-07-25T08:03:40.039Z,28.40
2018-07-25T08:05:45.430Z,28.50
2018-07-25T08:08:04.216Z,28.70
2018-07-25T08:10:09.546Z,28.80
2018-07-25T08:12:14.337Z,28.90
2018-07-25T08:14:19.030Z,28.90
2018-07-25T08:16:26.818Z,29.00
2018-07-25T08:18:31.586Z,29.00
2018-07-25T08:20:36.536Z,29.20
2018-07-25T08:22:41.184Z,29.30
2018-07-25T08:24:46.008Z,29.40
2018-07-25T08:27:03.865Z,29.50
2018-07-25T08:29:08.674Z,29.50
2018-07-25T08:31:13.364Z,29.80
2018-07-25T08:33:18.190Z,30.00
2018-07-25T08:35:27.395Z,30.10
2018-07-25T08:37:32.023Z,30.40
2018-07-25T08:39:38.610Z,30.60
2018-07-25T08:41:43.367Z,30.90
2018-07-25T08:43:50.229Z,31.10
2018-07-25T08:45:54.955Z,31.40
2018-07-25T08:48:00.934Z,31.50
2018-07-25T08:50:09.713Z,31.50
2018-07-25T08:54:38.165Z,31.40
2018-07-25T08:56:42.864Z,31.40
2018-07-25T08:58:47.718Z,31.50
2018-07-25T09:00:52.478Z,31.50
2018-07-25T09:03:02.887Z,31.70
2018-07-25T09:05:07.673Z,31.90
2018-07-25T09:07:12.397Z,32.10
2018-07-25T09:11:27.131Z,32.40
2018-07-25T09:13:33.232Z,32.50
2018-07-25T09:15:41.279Z,32.60
2018-07-25T09:17:46.004Z,32.80
2018-07-25T09:19:57.135Z,32.90
2018-07-25T09:22:01.847Z,33.10
2018-07-25T09:24:08.128Z,33.30
2018-07-25T09:26:12.707Z,33.40
2018-07-25T09:28:18.165Z,33.60
2018-07-25T09:30:23.176Z,33.80
2018-07-25T09:32:29.111Z,34.00
2018-07-25T09:34:33.758Z,34.10
2018-07-25T09:36:39.122Z,34.20
2018-07-25T09:38:44.775Z,34.30
2018-07-25T09:40:49.540Z,34.50
2018-07-25T09:42:56.092Z,34.50
2018-07-25T09:45:01.092Z,34.60
2018-07-25T09:47:11.728Z,34.50
2018-07-25T09:49:19.193Z,34.30
2018-07-25T09:51:24.710Z,34.30
2018-07-25T09:53:30.077Z,34.30
2018-07-25T09:55:39.480Z,34.50
2018-07-25T09:57:44.818Z,34.70
2018-07-25T09:59:50.569Z,34.80
2018-07-25T10:01:55.229Z,35.00
2018-07-25T10:06:13.053Z,35.30
2018-07-25T10:08:22.695Z,35.40
2018-07-25T10:10:27.740Z,35.50
2018-07-25T10:12:39.451Z,35.60
2018-07-25T10:14:44.160Z,35.70
2018-07-25T10:16:55.245Z,35.80
2018-07-25T10:19:00.024Z,35.90
2018-07-25T10:21:04.881Z,36.10
2018-07-25T10:23:09.624Z,36.20
2018-07-25T10:27:18.749Z,36.30
2018-07-25T10:29:25.109Z,36.10
2018-07-25T10:31:30.624Z,36.10
2018-07-25T10:33:46.897Z,36.00
2018-07-25T10:35:51.544Z,35.80
2018-07-25T10:37:56.295Z,35.90
2018-07-25T10:40:01.007Z,36.00
2018-07-25T10:42:13.427Z,36.10
2018-07-25T10:44:18.093Z,36.40
2018-07-25T10:46:22.953Z,36.40
2018-07-25T10:48:29.555Z,36.50
2018-07-25T10:50:40.970Z,36.50
2018-07-25T10:52:45.595Z,36.60
2018-07-25T10:54:50.372Z,36.70
2018-07-25T10:56:56.075Z,36.80
2018-07-25T10:59:07.276Z,36.80
2018-07-25T11:01:12.085Z,36.80
2018-07-25T11:03:16.832Z,36.60
2018-07-25T11:05:21.492Z,36.40
2018-07-25T11:07:43.690Z,36.30
2018-07-25T11:09:58.871Z,36.20
2018-07-25T11:12:19.346Z,36.20
2018-07-25T11:14:44.104Z,35.90
2018-07-25T11:16:49.299Z,35.70
2018-07-25T11:18:54.354Z,35.60
2018-07-25T11:20:59.024Z,35.70
2018-07-25T11:23:04.883Z,36.00
2018-07-25T11:25:30.999Z,36.10
2018-07-25T11:29:54.015Z,36.30
2018-07-25T11:31:59.278Z,36.10
2018-07-25T11:34:04.305Z,36.10
2018-07-25T11:36:17.248Z,35.90
2018-07-25T11:41:12.584Z,36.00
2018-07-25T11:43:51.986Z,36.10
2018-07-25T11:46:02.380Z,36.20
2018-07-25T11:48:10.652Z,36.40
2018-07-25T11:50:15.741Z,36.50
2018-07-25T11:52:20.459Z,36.40
2018-07-25T11:54:26.084Z,36.40
2018-07-25T11:56:49.057Z,36.30
2018-07-25T11:59:08.565Z,36.20
2018-07-25T12:03:50.566Z,36.00
2018-07-25T12:05:59.055Z,35.90
2018-07-25T12:08:03.725Z,36.10
2018-07-25T12:10:10.067Z,36.40
2018-07-25T12:12:15.956Z,36.60
2018-07-25T12:14:29.765Z,36.70
2018-07-25T12:16:35.486Z,36.40
2018-07-25T12:18:40.332Z,35.80
2018-07-25T12:20:45.197Z,35.40
2018-07-25T12:22:50.995Z,35.20
2018-07-25T12:24:55.652Z,35.10
2018-07-25T12:27:02.650Z,35.00
2018-07-25T12:29:09.203Z,34.80
2018-07-25T12:31:14.007Z,34.30
2018-07-25T12:33:18.804Z,34.10
2018-07-25T12:35:26.679Z,34.10
2018-07-25T12:37:36.190Z,33.90
2018-07-25T12:39:42.170Z,33.90
2018-07-25T12:41:58.741Z,33.90
2018-07-25T12:44:03.675Z,33.90
2018-07-25T12:46:10.466Z,34.10
2018-07-25T12:48:15.122Z,34.40
2018-07-25T12:50:23.896Z,34.90
2018-07-25T12:52:35.840Z,35.30
2018-07-25T12:54:43.275Z,35.70
2018-07-25T12:56:48.096Z,35.90
2018-07-25T12:58:53.562Z,35.80
2018-07-25T13:01:01.764Z,35.80
2018-07-25T13:06:46.256Z,35.60
2018-07-25T13:08:50.943Z,35.10
2018-07-25T13:10:55.983Z,34.80
2018-07-25T13:13:00.861Z,34.60
2018-07-25T13:15:08.528Z,34.40
2018-07-25T13:17:13.312Z,34.20
2018-07-25T13:19:20.192Z,34.00
2018-07-25T13:21:25.595Z,33.80
2018-07-25T13:23:38.242Z,33.60
2018-07-25T13:25:42.945Z,33.50
2018-07-25T13:27:47.562Z,33.40
2018-07-25T13:29:52.272Z,33.30
2018-07-25T13:32:04.712Z,33.20
2018-07-25T13:34:09.364Z,33.20
2018-07-25T13:36:14.196Z,33.20
2018-07-25T13:38:19.817Z,33.10
2018-07-25T13:42:37.095Z,32.80
2018-07-25T13:44:41.830Z,32.80
2018-07-25T13:46:46.700Z,32.70
2018-07-25T13:49:08.498Z,32.60
2018-07-25T13:51:13.169Z,32.50
2018-07-25T13:53:20.642Z,32.50
2018-07-25T13:55:25.355Z,32.60
2018-07-25T13:57:32.224Z,32.60
2018-07-25T13:59:40.234Z,32.60
2018-07-25T14:01:45.214Z,32.60
2018-07-25T14:03:50.007Z,32.60
2018-07-25T14:05:58.799Z,32.60
2018-07-25T14:08:04.332Z,32.80
2018-07-25T14:10:09.402Z,33.00
2018-07-25T14:12:14.092Z,33.30
2018-07-25T14:14:21.831Z,33.50
2018-07-25T14:16:27.157Z,33.70
2018-07-25T14:18:34.931Z,34.10
2018-07-25T14:20:39.863Z,34.40
2018-07-25T14:22:45.849Z,34.60
2018-07-25T14:24:52.034Z,34.90
2018-07-25T14:26:58.709Z,34.90
2018-07-25T14:29:03.688Z,35.00
2018-07-25T14:31:09.014Z,35.10
2018-07-25T14:33:13.869Z,35.00
2018-07-25T14:35:19.666Z,34.80
2018-07-25T14:37:24.288Z,34.70
2018-07-25T14:39:29.081Z,34.50
2018-07-25T14:41:33.799Z,34.40
2018-07-25T14:43:39.765Z,34.20
2018-07-25T14:45:47.411Z,34.30
2018-07-25T14:47:52.177Z,34.40
2018-07-25T14:49:57.110Z,34.50
2018-07-25T14:52:02.710Z,34.80
2018-07-25T14:54:09.722Z,34.80
2018-07-25T14:56:14.410Z,34.90
2018-07-25T14:58:19.022Z,34.90
2018-07-25T15:00:25.993Z,34.70
2018-07-25T15:02:32.420Z,34.50
2018-07-25T15:04:38.171Z,34.40
2018-07-25T15:06:42.800Z,34.30
2018-07-25T15:08:47.721Z,34.10
2018-07-25T15:10:52.370Z,34.10
2018-07-25T15:12:57.664Z,33.90
2018-07-25T15:15:02.570Z,33.90
2018-07-25T15:17:09.246Z,33.90
2018-07-25T15:19:13.872Z,33.80
2018-07-25T15:21:19.040Z,33.70
2018-07-25T15:23:36.599Z,33.70
2018-07-25T15:25:41.861Z,33.60
2018-07-25T15:27:46.626Z,33.50
2018-07-25T15:29:51.409Z,33.40
2018-07-25T15:31:57.075Z,33.40
2018-07-25T15:34:09.170Z,33.40
2018-07-25T15:36:22.499Z,33.30
2018-07-25T15:38:29.526Z,33.30
2018-07-25T15:40:34.360Z,33.20
2018-07-25T15:42:39.361Z,33.10
2018-07-25T15:44:45.571Z,33.00
2018-07-25T15:46:51.842Z,33.00
2018-07-25T15:48:56.882Z,32.90
2018-07-25T15:51:03.729Z,32.90
2018-07-25T15:53:09.668Z,33.00
2018-07-25T15:55:14.326Z,33.00
2018-07-25T15:57:18.984Z,33.00
2018-07-25T15:59:31.673Z,33.10
2018-07-25T16:01:37.635Z,33.30
2018-07-25T16:03:42.693Z,33.40
2018-07-25T16:05:47.373Z,33.60
2018-07-25T16:07:56.937Z,33.70
2018-07-25T16:12:11.202Z,33.80
2018-07-25T16:14:16.265Z,33.90
2018-07-25T16:16:23.591Z,34.00
2018-07-25T16:18:47.911Z,34.00
2018-07-25T16:20:52.921Z,34.00
2018-07-25T16:22:58.753Z,34.00
2018-07-25T16:25:03.804Z,33.90
2018-07-25T16:27:10.771Z,33.80
2018-07-25T16:29:15.505Z,33.80
2018-07-25T16:31:20.215Z,33.80
2018-07-25T16:33:24.818Z,33.80
2018-07-25T16:35:37.592Z,33.80
2018-07-25T16:37:42.292Z,33.80
2018-07-25T16:39:47.063Z,33.80
2018-07-25T16:41:51.692Z,33.80
2018-07-25T16:43:56.448Z,33.80
2018-07-25T16:46:02.509Z,33.80
2018-07-25T16:48:07.541Z,33.80
2018-07-25T16:50:12.232Z,33.80
2018-07-25T16:52:17.234Z,33.70
2018-07-25T16:54:22.734Z,33.70
2018-07-25T16:56:27.470Z,33.70
2018-07-25T16:58:32.921Z,33.60
2018-07-25T17:00:39.864Z,33.60
2018-07-25T17:02:44.532Z,33.60
2018-07-25T17:04:49.163Z,33.50
2018-07-25T17:06:54.975Z,33.50
2018-07-25T17:09:07.959Z,33.50
2018-07-25T17:11:12.634Z,33.50
2018-07-25T17:13:17.415Z,33.40
2018-07-25T17:15:33.667Z,33.40
2018-07-25T17:17:38.413Z,33.30
2018-07-25T17:19:44.401Z,33.20
2018-07-25T17:21:49.128Z,33.20
2018-07-25T17:23:53.946Z,33.10
2018-07-25T17:26:00.245Z,33.10
2018-07-25T17:28:06.565Z,33.00
2018-07-25T17:30:11.246Z,33.00
2018-07-25T17:32:18.267Z,32.90
2018-07-25T17:34:40.931Z,32.90
2018-07-25T17:36:48.530Z,32.90
2018-07-25T17:38:53.246Z,32.80
2018-07-25T17:40:58.631Z,32.70
2018-07-25T17:43:03.451Z,32.60
2018-07-25T17:45:13.504Z,32.50
2018-07-25T17:47:18.486Z,32.50
2018-07-25T17:49:23.269Z,32.50
2018-07-25T17:51:28.119Z,32.40
2018-07-25T17:53:39.525Z,32.30
2018-07-25T17:55:44.213Z,32.30
2018-07-25T17:57:50.077Z,32.20
2018-07-25T18:02:06.862Z,32.10
2018-07-25T18:04:11.458Z,32.00
2018-07-25T18:06:16.317Z,31.90
2018-07-25T18:08:21.014Z,31.80
2018-07-25T18:10:33.014Z,31.80
2018-07-25T18:12:37.736Z,31.70
2018-07-25T18:14:42.492Z,31.60
2018-07-25T18:16:47.138Z,31.60
2018-07-25T18:20:57.286Z,31.40
2018-07-25T18:23:02.221Z,31.30
2018-07-25T18:25:07.658Z,31.30
2018-07-25T18:27:12.641Z,31.20
2018-07-25T18:29:17.331Z,31.20
2018-07-25T18:31:22.150Z,31.10
2018-07-25T18:33:28.388Z,31.00
2018-07-25T18:35:37.267Z,31.00
2018-07-25T18:37:41.886Z,30.90
2018-07-25T18:39:46.631Z,30.90
2018-07-25T18:41:53.222Z,30.80
2018-07-25T18:44:00.585Z,30.80
2018-07-25T18:46:05.326Z,30.70
2018-07-25T18:48:10.577Z,30.60
2018-07-25T18:50:15.266Z,30.60
2018-07-25T18:52:20.080Z,30.50
2018-07-25T18:54:24.913Z,30.30
2018-07-25T18:56:29.672Z,30.20
2018-07-25T18:58:35.360Z,30.10
2018-07-25T19:00:40.197Z,30.00
2018-07-25T19:02:44.910Z,29.90
2018-07-25T19:05:01.381Z,29.80
2018-07-25T19:07:07.951Z,29.70
2018-07-25T19:09:15.190Z,29.50
2018-07-25T19:11:22.407Z,29.40
2018-07-25T19:13:36.213Z,29.30
2018-07-25T19:15:48.272Z,29.20
2018-07-25T19:17:53.444Z,29.10
2018-07-25T19:20:01.196Z,29.00
2018-07-25T19:22:06.503Z,28.90
2018-07-25T19:24:18.621Z,28.80
2018-07-25T19:26:24.149Z,28.70
2018-07-25T19:28:35.247Z,28.70
2018-07-25T19:30:40.205Z,28.60
2018-07-25T19:32:46.038Z,28.60
2018-07-25T19:34:50.768Z,28.50
2018-07-25T19:37:02.704Z,28.50
2018-07-25T19:39:10.659Z,28.40
2018-07-25T19:43:20.307Z,28.20
2018-07-25T19:45:26.341Z,28.10
2018-07-25T19:47:31.123Z,28.00
2018-07-25T19:49:39.748Z,27.90
2018-07-25T19:51:44.409Z,27.70
2018-07-25T19:53:49.399Z,27.60
2018-07-25T19:55:54.022Z,27.60
2018-07-25T19:57:59.655Z,27.50
2018-07-25T20:00:04.376Z,27.50
2018-07-25T20:02:11.052Z,27.50
2018-07-25T20:04:15.610Z,27.50
2018-07-25T20:06:22.276Z,27.50
2018-07-25T20:08:26.943Z,27.50
2018-07-25T20:10:36.394Z,27.50
2018-07-25T20:12:42.456Z,27.50
2018-07-25T20:14:52.220Z,27.40
2018-07-25T20:16:57.016Z,27.30
2018-07-25T20:21:11.645Z,27.20
2018-07-25T20:23:16.803Z,27.10
2018-07-25T20:25:37.848Z,27.00
2018-07-25T20:27:43.057Z,26.90
2018-07-25T20:29:47.819Z,26.80
2018-07-25T20:31:54.531Z,26.70
2018-07-25T20:33:59.177Z,26.60
2018-07-25T20:36:03.812Z,26.60
2018-07-25T20:38:09.300Z,26.50
2018-07-25T20:40:17.482Z,26.60
2018-07-25T20:42:22.536Z,26.60
2018-07-25T20:44:27.199Z,26.60
2018-07-25T20:46:33.076Z,26.60
2018-07-25T20:48:40.842Z,26.60
2018-07-25T20:50:52.367Z,26.60
2018-07-25T20:53:02.154Z,26.60
2018-07-25T20:55:10.720Z,26.50
2018-07-25T20:57:22.741Z,26.30
2018-07-25T20:59:34.035Z,26.10
2018-07-25T21:01:43.123Z,25.90
2018-07-25T21:03:53.419Z,25.90
2018-07-25T21:06:05.080Z,25.90
2018-07-25T21:08:13.495Z,25.90
2018-07-25T21:10:28.054Z,25.90
2018-07-25T21:12:36.753Z,25.90
2018-07-25T21:14:45.405Z,25.90
2018-07-25T21:19:11.027Z,25.70
2018-07-25T21:21:15.845Z,25.80
2018-07-25T21:23:24.524Z,25.80
2018-07-25T21:25:29.168Z,25.80
2018-07-25T21:27:34.340Z,25.70
2018-07-25T21:31:53.599Z,25.70
2018-07-25T21:33:58.512Z,25.70
2018-07-25T21:36:03.320Z,25.70
2018-07-25T21:38:10.043Z,25.70
2018-07-25T21:40:14.696Z,25.70
2018-07-25T21:42:19.328Z,25.70
2018-07-25T21:44:24.675Z,25.70
2018-07-25T21:46:30.833Z,25.60
2018-07-25T21:48:35.388Z,25.50
2018-07-25T21:50:41.059Z,25.50
2018-07-25T21:52:45.623Z,25.50
2018-07-25T21:56:55.314Z,25.40
2018-07-25T21:59:13.991Z,25.40
2018-07-25T22:01:19.209Z,25.30
2018-07-25T22:03:24.878Z,25.20
2018-07-25T22:05:29.510Z,25.20
2018-07-25T22:07:38.225Z,25.20
2018-07-25T22:09:42.792Z,25.10
2018-07-25T22:11:47.390Z,25.00
2018-07-25T22:13:54.802Z,25.00
2018-07-25T22:16:00.173Z,25.00
2018-07-25T22:18:05.727Z,24.90
2018-07-25T22:20:20.689Z,24.90
2018-07-25T22:22:25.327Z,24.90
2018-07-25T22:24:30.079Z,24.80
2018-07-25T22:26:34.740Z,24.80
2018-07-25T22:28:45.240Z,24.70
2018-07-25T22:30:49.817Z,24.70
2018-07-25T22:32:55.504Z,24.70
2018-07-25T22:35:02.365Z,24.60
2018-07-25T22:37:10.972Z,24.60
2018-07-25T22:39:15.553Z,24.50
2018-07-25T22:41:20.147Z,24.50
2018-07-25T22:43:24.798Z,24.50
2018-07-25T22:45:34.440Z,24.50
2018-07-25T22:47:39.115Z,24.40
2018-07-25T22:49:43.804Z,24.40
2018-07-25T22:51:48.399Z,24.30
2018-07-25T22:53:53.090Z,24.30
2018-07-25T22:55:57.625Z,24.30
2018-07-25T22:58:02.299Z,24.20
2018-07-25T23:00:09.784Z,24.20
2018-07-25T23:02:14.637Z,24.20
2018-07-25T23:04:20.244Z,24.10
2018-07-25T23:06:24.940Z,24.10
2018-07-25T23:08:30.590Z,24.00
2018-07-25T23:10:35.288Z,24.00
2018-07-25T23:12:40.143Z,23.90
2018-07-25T23:14:44.803Z,23.90
2018-07-25T23:16:56.924Z,23.90
2018-07-25T23:19:01.463Z,23.90
2018-07-25T23:21:07.018Z,23.90
2018-07-25T23:23:11.656Z,23.90
2018-07-25T23:27:31.833Z,23.80
2018-07-25T23:29:36.673Z,23.80
2018-07-25T23:31:41.225Z,23.80
2018-07-25T23:33:46.052Z,23.70
2018-07-25T23:35:50.673Z,23.70
2018-07-25T23:37:55.575Z,23.70
2018-07-25T23:40:00.149Z,23.60
2018-07-25T23:42:05.770Z,23.50
2018-07-25T23:44:10.335Z,23.50
2018-07-25T23:46:14.924Z,23.50
2018-07-25T23:48:20.726Z,23.40
2018-07-25T23:50:31.605Z,23.40
2018-07-25T23:52:36.189Z,23.40
2018-07-25T23:54:40.812Z,23.30
2018-07-25T23:56:45.367Z,23.30
2018-07-25T23:58:50.648Z,23.20
